createdAt,value
2019-05-23T09:48:54.437Z,2098.12
2019-05-23T09:49:54.530Z,1980.00
2019-05-23T09:50:54.423Z,1918.12
2019-05-23T09:51:59.227Z,2041.88
2019-05-23T09:52:55.398Z,2098.12
2019-05-23T09:53:54.387Z,1895.62
2019-05-23T09:54:54.368Z,2188.12
2019-05-23T09:55:55.894Z,2295.00
2019-05-23T09:56:54.375Z,2199.38
2019-05-23T09:57:54.376Z,2154.38
2019-05-23T09:58:54.332Z,2176.88
2019-05-23T09:59:56.864Z,2362.50
2019-05-23T10:00:54.323Z,2334.38
2019-05-23T10:01:54.331Z,2385.00
2019-05-23T10:02:54.289Z,2469.38
2019-05-23T10:03:54.284Z,2514.38
2019-05-23T10:04:54.336Z,2621.25
2019-05-23T10:05:54.266Z,2542.50
2019-05-23T10:06:54.264Z,2463.75
2019-05-23T10:07:54.280Z,2441.25
2019-05-23T10:08:54.231Z,2418.75
2019-05-23T10:09:54.223Z,2430.00
2019-05-23T10:10:54.212Z,2373.75
2019-05-23T10:11:54.203Z,2413.12
2019-05-23T10:12:54.195Z,2705.62
2019-05-23T10:13:54.207Z,2823.75
2019-05-23T10:14:54.171Z,2565.00
2019-05-23T10:15:54.168Z,2407.50
2019-05-23T10:16:54.152Z,2666.25
2019-05-23T10:17:54.257Z,2638.12
2019-05-23T10:18:54.134Z,2491.88
2019-05-23T10:19:54.132Z,2593.12
2019-05-23T10:20:54.112Z,2548.12
2019-05-23T10:21:54.106Z,2514.38
2019-05-23T10:22:54.090Z,2705.62
2019-05-23T10:23:54.081Z,2750.62
2019-05-23T10:24:54.103Z,2441.25
2019-05-23T10:25:54.071Z,2317.50
2019-05-23T10:26:54.120Z,2289.38
2019-05-23T10:27:55.902Z,2278.12
2019-05-23T10:28:54.040Z,2368.12
2019-05-23T10:29:54.022Z,2446.88
2019-05-23T10:30:54.025Z,2570.62
2019-05-23T10:31:54.017Z,2593.12
2019-05-23T10:32:54.000Z,2598.75
2019-05-23T10:33:53.990Z,2553.75
2019-05-23T10:34:53.994Z,2446.88
2019-05-23T10:36:00.272Z,2604.38
2019-05-23T10:36:54.977Z,2784.38
2019-05-23T10:37:53.972Z,2767.50
2019-05-23T10:38:53.935Z,2801.25
2019-05-23T10:39:53.930Z,2745.00
2019-05-23T10:40:53.935Z,2604.38
2019-05-23T10:41:53.915Z,2458.12
2019-05-23T10:42:53.911Z,2491.88
2019-05-23T10:43:53.905Z,2531.25
2019-05-23T10:44:53.874Z,2463.75
2019-05-23T10:45:53.874Z,2497.50
2019-05-23T10:46:53.855Z,2345.62
2019-05-23T10:47:53.851Z,2070.00
2019-05-23T10:48:53.842Z,2131.88
2019-05-23T10:49:53.840Z,2446.88
2019-05-23T10:50:53.825Z,2508.75
2019-05-23T10:51:53.805Z,2233.12
2019-05-23T10:52:53.807Z,2053.12
2019-05-23T10:53:53.796Z,2188.12
2019-05-23T10:54:53.778Z,2368.12
2019-05-23T10:55:53.785Z,2334.38
2019-05-23T10:56:53.770Z,2199.38
2019-05-23T10:57:53.748Z,2323.12
2019-05-23T10:58:53.739Z,2424.38
2019-05-23T10:59:53.726Z,2334.38
2019-05-23T11:00:53.731Z,2058.75
2019-05-23T11:01:53.724Z,1985.62
2019-05-23T11:02:53.703Z,2036.25
2019-05-23T11:03:53.697Z,2227.50
2019-05-23T11:04:53.702Z,2345.62
2019-05-23T11:05:53.678Z,2176.88
2019-05-23T11:06:53.674Z,2053.12
2019-05-23T11:07:53.669Z,2002.50
2019-05-23T11:08:53.640Z,1546.88
2019-05-23T11:09:53.630Z,1766.25
2019-05-23T11:10:53.624Z,1822.50
2019-05-23T11:11:53.619Z,1535.62
2019-05-23T11:12:53.607Z,1226.25
2019-05-23T11:13:53.602Z,871.88
2019-05-23T11:14:53.584Z,720.00
2019-05-23T11:15:53.576Z,613.12
2019-05-23T11:16:53.578Z,590.62
2019-05-23T11:17:54.112Z,562.50
2019-05-23T11:18:53.544Z,506.25
2019-05-23T11:19:53.541Z,478.12
2019-05-23T11:20:53.528Z,478.12
2019-05-23T11:21:53.517Z,472.50
2019-05-23T11:22:53.507Z,472.50
2019-05-23T11:23:53.590Z,466.88
2019-05-23T11:24:53.494Z,466.88
2019-05-23T11:25:53.477Z,461.25
2019-05-23T11:26:53.465Z,450.00
2019-05-23T11:27:53.460Z,438.75
2019-05-23T11:28:53.444Z,438.75
2019-05-23T11:29:53.433Z,438.75
2019-05-23T11:30:53.421Z,433.12
2019-05-23T11:31:53.420Z,433.12
2019-05-23T11:32:53.416Z,427.50
2019-05-23T11:33:53.408Z,427.50
2019-05-23T11:34:53.386Z,427.50
2019-05-23T11:35:53.369Z,421.88
2019-05-23T11:36:53.376Z,421.88
2019-05-23T11:37:53.353Z,421.88
2019-05-23T11:38:53.357Z,427.50
2019-05-23T11:39:53.346Z,421.88
2019-05-23T11:40:53.326Z,416.25
2019-05-23T11:41:53.311Z,410.62
2019-05-23T11:42:53.304Z,410.62
2019-05-23T11:43:53.294Z,410.62
2019-05-23T11:44:53.305Z,405.00
2019-05-23T11:45:53.275Z,405.00
2019-05-23T11:46:53.270Z,399.38
2019-05-23T11:47:53.249Z,399.38
2019-05-23T11:48:53.241Z,393.75
2019-05-23T11:49:53.246Z,388.12
2019-05-23T11:50:53.231Z,382.50
2019-05-23T11:51:53.210Z,382.50
2019-05-23T11:52:55.930Z,382.50
2019-05-23T11:54:06.659Z,388.12
2019-05-23T11:54:54.189Z,376.88
2019-05-23T11:55:54.385Z,376.88
2019-05-23T11:56:53.165Z,382.50
2019-05-23T11:57:53.155Z,376.88
2019-05-23T11:58:53.163Z,393.75
2019-05-23T11:59:53.162Z,382.50
2019-05-23T12:00:53.407Z,371.25
2019-05-23T12:01:53.116Z,365.62
2019-05-23T12:02:53.121Z,365.62
2019-05-23T12:03:53.091Z,371.25
2019-05-23T12:04:53.089Z,371.25
2019-05-23T12:05:53.118Z,371.25
2019-05-23T12:06:55.887Z,365.62
2019-05-23T12:07:53.063Z,360.00
2019-05-23T12:08:53.053Z,360.00
2019-05-23T12:09:53.045Z,360.00
2019-05-23T12:10:53.039Z,360.00
2019-05-23T12:11:53.040Z,348.75
2019-05-23T12:12:53.008Z,343.12
2019-05-23T12:13:53.016Z,337.50
2019-05-23T12:14:52.991Z,331.88
2019-05-23T12:15:52.980Z,337.50
2019-05-23T12:16:52.997Z,348.75
2019-05-23T12:17:52.962Z,360.00
2019-05-23T12:18:52.949Z,354.38
2019-05-23T12:19:52.937Z,354.38
2019-05-23T12:20:52.934Z,348.75
2019-05-23T12:21:52.936Z,343.12
2019-05-23T12:22:52.965Z,337.50
2019-05-23T12:23:52.911Z,331.88
2019-05-23T12:24:52.888Z,331.88
2019-05-23T12:25:52.882Z,337.50
2019-05-23T12:26:52.867Z,331.88
2019-05-23T12:27:52.866Z,326.25
2019-05-23T12:28:52.928Z,331.88
2019-05-23T12:29:52.929Z,326.25
2019-05-23T12:30:52.844Z,326.25
2019-05-23T12:31:52.824Z,326.25
2019-05-23T12:32:53.233Z,320.62
2019-05-23T12:33:52.798Z,331.88
2019-05-23T12:35:09.764Z,331.88
2019-05-23T12:35:53.776Z,326.25
2019-05-23T12:36:52.772Z,331.88
2019-05-23T12:37:52.757Z,326.25
2019-05-23T12:38:52.806Z,326.25
2019-05-23T12:39:52.739Z,320.62
2019-05-23T12:40:52.727Z,326.25
2019-05-23T12:41:52.750Z,326.25
2019-05-23T12:42:52.706Z,326.25
2019-05-23T12:43:52.841Z,326.25
2019-05-23T12:44:52.688Z,326.25
2019-05-23T12:45:52.691Z,320.62
2019-05-23T12:46:52.667Z,320.62
2019-05-23T12:47:52.658Z,326.25
2019-05-23T12:48:52.660Z,331.88
2019-05-23T12:49:52.654Z,337.50
2019-05-23T12:50:54.217Z,337.50
2019-05-23T12:51:52.624Z,337.50
2019-05-23T12:52:52.606Z,337.50
2019-05-23T12:53:52.608Z,337.50
2019-05-23T12:54:52.586Z,343.12
2019-05-23T12:55:52.587Z,343.12
2019-05-23T12:56:52.582Z,343.12
2019-05-23T12:57:52.553Z,343.12
2019-05-23T12:58:52.544Z,348.75
2019-05-23T12:59:53.224Z,354.38
2019-05-23T13:00:52.552Z,348.75
2019-05-23T13:01:52.514Z,354.38
2019-05-23T13:02:52.509Z,354.38
2019-05-23T13:03:52.511Z,382.50
2019-05-23T13:04:52.491Z,399.38
2019-05-23T13:05:52.508Z,416.25
2019-05-23T13:06:52.464Z,444.38
2019-05-23T13:07:52.464Z,478.12
2019-05-23T13:08:52.474Z,708.75
2019-05-23T13:09:52.451Z,1552.50
2019-05-23T13:10:52.439Z,2385.00
2019-05-23T13:11:52.475Z,2536.88
2019-05-23T13:12:52.406Z,2418.75
2019-05-23T13:13:52.401Z,2362.50
2019-05-23T13:14:55.989Z,2486.25
2019-05-23T13:15:53.378Z,2666.25
2019-05-23T13:16:52.403Z,2514.38
2019-05-23T13:17:52.368Z,2216.25
2019-05-23T13:18:52.366Z,1940.62
2019-05-23T13:19:52.344Z,2013.75
2019-05-23T13:20:52.336Z,2289.38
2019-05-23T13:21:52.320Z,2199.38
2019-05-23T13:22:52.313Z,2176.88
2019-05-23T13:23:52.316Z,2508.75
2019-05-23T13:24:53.453Z,2525.62
2019-05-23T13:25:52.280Z,2548.12
2019-05-23T13:26:52.269Z,2835.00
2019-05-23T13:27:52.262Z,2795.62
2019-05-23T13:28:52.266Z,2295.00
2019-05-23T13:29:52.270Z,2154.38
2019-05-23T13:30:52.334Z,2390.62
2019-05-23T13:31:52.227Z,2520.00
2019-05-23T13:32:52.216Z,2542.50
2019-05-23T13:33:52.202Z,2475.00
2019-05-23T13:34:52.197Z,2379.38
2019-05-23T13:35:52.194Z,2120.62
2019-05-23T13:36:52.313Z,1693.12
2019-05-23T13:37:54.215Z,978.75
2019-05-23T13:38:52.156Z,900.00
2019-05-23T13:39:52.186Z,1018.12
2019-05-23T13:40:52.154Z,1428.75
2019-05-23T13:41:52.147Z,883.12
2019-05-23T13:42:52.126Z,309.38
2019-05-23T13:43:52.117Z,219.38
2019-05-23T13:44:52.104Z,208.12
2019-05-23T13:45:52.113Z,196.88
2019-05-23T13:46:52.079Z,191.25
2019-05-23T13:47:52.094Z,185.62
2019-05-23T13:48:52.147Z,185.62
2019-05-23T13:49:52.059Z,180.00
2019-05-23T13:50:52.044Z,180.00
2019-05-23T13:51:52.072Z,180.00
2019-05-23T13:52:52.025Z,180.00
2019-05-23T13:53:52.015Z,174.38
2019-05-23T13:54:52.004Z,174.38
2019-05-23T13:55:51.983Z,168.75
2019-05-23T13:56:51.986Z,163.12
2019-05-23T13:57:51.965Z,163.12
2019-05-23T13:58:51.967Z,168.75
2019-05-23T13:59:51.946Z,163.12
2019-05-23T14:00:51.936Z,168.75
2019-05-23T14:01:52.013Z,163.12
2019-05-23T14:02:51.914Z,163.12
2019-05-23T14:03:51.902Z,157.50
2019-05-23T14:04:51.895Z,157.50
2019-05-23T14:05:51.883Z,157.50
2019-05-23T14:06:51.873Z,157.50
2019-05-23T14:07:51.872Z,151.88
2019-05-23T14:08:51.852Z,151.88
2019-05-23T14:09:51.837Z,146.25
2019-05-23T14:10:51.835Z,146.25
2019-05-23T14:12:19.622Z,140.62
2019-05-23T14:12:52.846Z,135.00
2019-05-23T14:13:59.737Z,129.38
2019-05-23T14:14:52.875Z,135.00
2019-05-23T14:15:52.124Z,129.38
2019-05-23T14:16:51.913Z,129.38
2019-05-23T14:17:51.798Z,123.75
2019-05-23T14:18:51.753Z,129.38
2019-05-23T14:19:51.735Z,129.38
2019-05-23T14:20:51.722Z,129.38
2019-05-23T14:21:51.723Z,129.38
2019-05-23T14:22:51.834Z,129.38
2019-05-23T14:23:51.702Z,123.75
2019-05-23T14:24:51.682Z,129.38
2019-05-23T14:25:51.673Z,129.38
2019-05-23T14:26:51.661Z,129.38
2019-05-23T14:27:51.677Z,129.38
2019-05-23T14:28:51.659Z,135.00
2019-05-23T14:29:51.624Z,135.00
2019-05-23T14:30:51.612Z,135.00
2019-05-23T14:31:51.602Z,135.00
2019-05-23T14:32:51.596Z,140.62
2019-05-23T14:33:51.593Z,140.62
2019-05-23T14:34:52.256Z,140.62
2019-05-23T14:35:51.571Z,140.62
2019-05-23T14:36:51.555Z,140.62
2019-05-23T14:37:51.537Z,135.00
2019-05-23T14:38:51.537Z,129.38
2019-05-23T14:39:51.531Z,123.75
2019-05-23T14:40:51.511Z,123.75
2019-05-23T14:41:51.497Z,118.12
2019-05-23T14:42:53.236Z,118.12
2019-05-23T14:43:51.490Z,118.12
2019-05-23T14:44:51.516Z,118.12
2019-05-23T14:45:51.459Z,118.12
2019-05-23T14:46:51.448Z,129.38
2019-05-23T14:47:51.443Z,129.38
2019-05-23T14:48:51.428Z,129.38
2019-05-23T14:49:51.416Z,129.38
2019-05-23T14:50:51.436Z,129.38
2019-05-23T14:51:51.403Z,129.38
2019-05-23T14:52:51.383Z,129.38
2019-05-23T14:53:51.380Z,129.38
2019-05-23T14:54:51.370Z,129.38
2019-05-23T14:55:51.483Z,129.38
2019-05-23T14:56:51.418Z,129.38
2019-05-23T14:57:51.332Z,123.75
2019-05-23T14:58:51.315Z,118.12
2019-05-23T14:59:51.310Z,112.50
2019-05-23T15:00:51.300Z,112.50
2019-05-23T15:01:51.294Z,112.50
2019-05-23T15:02:51.280Z,106.88
2019-05-23T15:03:51.408Z,95.62
2019-05-23T15:04:51.767Z,95.62
2019-05-23T15:05:51.313Z,95.62
2019-05-23T15:06:51.245Z,106.88
2019-05-23T15:07:51.238Z,106.88
2019-05-23T15:08:52.133Z,112.50
2019-05-23T15:09:52.215Z,101.25
2019-05-23T15:10:51.192Z,101.25
2019-05-23T15:11:51.239Z,101.25
2019-05-23T15:12:51.172Z,84.38
2019-05-23T15:13:51.155Z,90.00
2019-05-23T15:14:51.146Z,106.88
2019-05-23T15:15:51.161Z,106.88
2019-05-23T15:16:51.151Z,106.88
2019-05-23T15:17:51.125Z,90.00
2019-05-23T15:18:51.101Z,101.25
2019-05-23T15:19:51.097Z,106.88
2019-05-23T15:20:51.088Z,106.88
2019-05-23T15:21:51.074Z,101.25
2019-05-23T15:22:51.575Z,101.25
2019-05-23T15:23:51.046Z,101.25
2019-05-23T15:24:51.047Z,106.88
2019-05-23T15:25:51.031Z,101.25
2019-05-23T15:26:51.017Z,95.62
2019-05-23T15:27:51.044Z,106.88
2019-05-23T15:28:50.998Z,95.62
2019-05-23T15:29:51.005Z,90.00
2019-05-23T15:30:50.983Z,95.62
2019-05-23T15:32:01.673Z,90.00
2019-05-23T15:32:51.963Z,95.62
2019-05-23T15:33:50.979Z,90.00
2019-05-23T15:34:50.935Z,84.38
2019-05-23T15:35:50.916Z,84.38
2019-05-23T15:36:50.911Z,90.00
2019-05-23T15:37:50.902Z,90.00
2019-05-23T15:39:07.539Z,84.38
2019-05-23T15:39:51.887Z,84.38
2019-05-23T15:40:50.950Z,84.38
2019-05-23T15:41:50.884Z,90.00
2019-05-23T15:42:50.844Z,95.62
2019-05-23T15:43:50.832Z,90.00
2019-05-23T15:44:50.873Z,90.00
2019-05-23T15:45:50.813Z,84.38
2019-05-23T15:46:50.797Z,78.75
2019-05-23T15:47:50.794Z,78.75
2019-05-23T15:48:50.779Z,73.12
2019-05-23T15:49:50.773Z,73.12
2019-05-23T15:50:50.753Z,67.50
2019-05-23T15:51:54.043Z,67.50
2019-05-23T15:52:50.731Z,67.50
2019-05-23T15:53:50.725Z,67.50
2019-05-23T15:54:50.729Z,67.50
2019-05-23T15:55:50.740Z,73.12
2019-05-23T15:56:50.698Z,67.50
2019-05-23T15:57:50.676Z,78.75
2019-05-23T15:58:50.671Z,78.75
2019-05-23T15:59:50.679Z,78.75
2019-05-23T16:00:50.708Z,78.75
2019-05-23T16:01:50.667Z,78.75
2019-05-23T16:02:50.629Z,78.75
2019-05-23T16:03:50.631Z,78.75
2019-05-23T16:04:50.602Z,84.38
2019-05-23T16:05:50.651Z,84.38
2019-05-23T16:06:50.590Z,78.75
2019-05-23T16:07:50.583Z,78.75
2019-05-23T16:08:50.564Z,78.75
2019-05-23T16:09:50.560Z,78.75
2019-05-23T16:10:50.542Z,78.75
2019-05-23T16:11:50.553Z,67.50
2019-05-23T16:12:50.522Z,67.50
2019-05-23T16:13:50.519Z,61.88
2019-05-23T16:14:50.502Z,61.88
2019-05-23T16:15:50.483Z,67.50
2019-05-23T16:16:50.477Z,67.50
2019-05-23T16:17:50.475Z,73.12
2019-05-23T16:18:50.457Z,67.50
2019-05-23T16:19:50.454Z,67.50
2019-05-23T16:20:50.429Z,73.12
2019-05-23T16:21:50.421Z,73.12
2019-05-23T16:22:50.416Z,67.50
2019-05-23T16:23:50.407Z,73.12
2019-05-23T16:24:50.397Z,67.50
2019-05-23T16:25:50.381Z,61.88
2019-05-23T16:26:50.377Z,61.88
2019-05-23T16:27:50.384Z,61.88
2019-05-23T16:28:50.348Z,61.88
2019-05-23T16:29:50.340Z,61.88
2019-05-23T16:30:50.329Z,61.88
2019-05-23T16:31:50.318Z,61.88
2019-05-23T16:32:50.302Z,61.88
2019-05-23T16:33:50.312Z,61.88
2019-05-23T16:34:50.292Z,73.12
2019-05-23T16:35:50.331Z,73.12
2019-05-23T16:36:50.266Z,73.12
2019-05-23T16:37:50.263Z,73.12
2019-05-23T16:38:50.241Z,78.75
2019-05-23T16:39:50.347Z,78.75
2019-05-23T16:40:50.232Z,78.75
2019-05-23T16:41:50.205Z,78.75
2019-05-23T16:42:50.202Z,73.12
2019-05-23T16:43:50.230Z,73.12
2019-05-23T16:44:50.178Z,67.50
2019-05-23T16:45:50.165Z,61.88
2019-05-23T16:46:50.157Z,73.12
2019-05-23T16:47:50.152Z,67.50
2019-05-23T16:48:50.149Z,67.50
2019-05-23T16:49:50.146Z,67.50
2019-05-23T16:50:50.117Z,67.50
2019-05-23T16:51:50.101Z,67.50
2019-05-23T16:52:50.088Z,67.50
2019-05-23T16:53:50.087Z,61.88
2019-05-23T16:54:50.075Z,61.88
2019-05-23T16:55:50.072Z,67.50
2019-05-23T16:56:50.094Z,61.88
2019-05-23T16:57:50.039Z,61.88
2019-05-23T16:58:50.025Z,67.50
2019-05-23T16:59:50.033Z,67.50
2019-05-23T17:00:50.037Z,61.88
2019-05-23T17:01:57.876Z,61.88
2019-05-23T17:02:51.006Z,61.88
2019-05-23T17:03:49.977Z,56.25
2019-05-23T17:04:59.428Z,56.25
2019-05-23T17:05:50.971Z,50.62
2019-05-23T17:06:49.958Z,56.25
2019-05-23T17:07:49.936Z,56.25
2019-05-23T17:08:49.921Z,50.62
2019-05-23T17:10:06.586Z,50.62
2019-05-23T17:10:50.937Z,50.62
2019-05-23T17:11:49.892Z,50.62
2019-05-23T17:12:49.876Z,50.62
2019-05-23T17:13:49.865Z,45.00
2019-05-23T17:14:51.915Z,50.62
2019-05-23T17:15:49.846Z,50.62
2019-05-23T17:16:49.857Z,50.62
2019-05-23T17:18:02.058Z,50.62
2019-05-23T17:18:50.819Z,45.00
2019-05-23T17:19:49.802Z,45.00
2019-05-23T17:20:49.796Z,45.00
2019-05-23T17:21:49.786Z,45.00
2019-05-23T17:22:49.781Z,45.00
2019-05-23T17:23:49.770Z,45.00
2019-05-23T17:24:49.758Z,45.00
2019-05-23T17:25:49.741Z,50.62
2019-05-23T17:26:49.728Z,45.00
2019-05-23T17:27:49.765Z,45.00
2019-05-23T17:28:49.706Z,45.00
2019-05-23T17:29:49.701Z,45.00
2019-05-23T17:30:49.685Z,45.00
2019-05-23T17:31:49.783Z,39.38
2019-05-23T17:32:49.693Z,39.38
2019-05-23T17:33:49.661Z,39.38
2019-05-23T17:34:49.643Z,39.38
2019-05-23T17:35:49.661Z,39.38
2019-05-23T17:36:49.766Z,39.38
2019-05-23T17:37:49.611Z,39.38
2019-05-23T17:38:49.791Z,33.75
2019-05-23T17:39:53.214Z,33.75
2019-05-23T17:41:58.419Z,33.75
2019-05-23T17:42:58.329Z,33.75
2019-05-23T17:43:58.359Z,33.75
2019-05-23T17:44:58.312Z,33.75
2019-05-23T17:45:58.308Z,28.12
2019-05-23T17:46:58.286Z,28.12
2019-05-23T17:47:58.280Z,28.12
2019-05-23T17:48:58.270Z,28.12
2019-05-23T17:49:58.351Z,28.12
2019-05-23T17:50:58.449Z,28.12
2019-05-23T17:51:58.287Z,28.12
2019-05-23T17:52:58.252Z,28.12
2019-05-23T17:53:58.317Z,28.12
2019-05-23T17:54:58.321Z,28.12
2019-05-23T17:55:58.199Z,28.12
2019-05-23T17:56:58.179Z,28.12
2019-05-23T17:57:58.174Z,22.50
2019-05-23T17:58:58.165Z,22.50
2019-05-23T17:59:58.152Z,22.50
2019-05-23T18:00:58.339Z,22.50
2019-05-23T18:01:58.127Z,22.50
2019-05-23T18:02:58.159Z,22.50
2019-05-23T18:03:58.117Z,22.50
2019-05-23T18:04:58.098Z,22.50
2019-05-23T18:05:58.085Z,22.50
2019-05-23T18:06:58.090Z,22.50
2019-05-23T18:07:58.062Z,16.88
2019-05-23T18:08:58.053Z,16.88
2019-05-23T18:09:58.042Z,16.88
2019-05-23T18:10:58.629Z,16.88
2019-05-23T18:11:58.567Z,16.88
2019-05-23T18:12:58.569Z,16.88
2019-05-23T18:13:58.937Z,16.88
2019-05-23T18:14:58.119Z,16.88
2019-05-23T18:15:57.986Z,16.88
2019-05-23T18:16:57.985Z,16.88
2019-05-23T18:17:58.907Z,16.88
2019-05-23T18:18:57.948Z,16.88
2019-05-23T18:19:57.943Z,16.88
2019-05-23T18:20:57.932Z,16.88
2019-05-23T18:21:57.940Z,16.88
2019-05-23T18:22:57.900Z,16.88
2019-05-23T18:23:57.893Z,11.25
2019-05-23T18:24:59.787Z,11.25
2019-05-23T18:25:57.872Z,11.25
2019-05-23T18:26:57.863Z,11.25
2019-05-23T18:27:57.876Z,11.25
2019-05-23T18:28:57.835Z,11.25
2019-05-23T18:29:57.830Z,11.25
2019-05-23T18:30:57.817Z,11.25
2019-05-23T18:31:57.808Z,11.25
2019-05-23T18:32:57.798Z,11.25
2019-05-23T18:33:57.890Z,11.25
2019-05-23T18:34:57.778Z,11.25
2019-05-23T18:35:57.770Z,11.25
2019-05-23T18:36:57.768Z,11.25
2019-05-23T18:37:57.743Z,11.25
2019-05-23T18:38:57.732Z,11.25
2019-05-23T18:39:57.744Z,11.25
2019-05-23T18:41:03.247Z,5.62
2019-05-23T18:41:58.707Z,5.62
2019-05-23T18:42:57.688Z,5.62
2019-05-23T18:43:57.680Z,5.62
2019-05-23T18:44:57.664Z,5.62
2019-05-23T18:45:57.658Z,5.62
2019-05-23T18:46:57.650Z,5.62
2019-05-23T18:47:57.630Z,5.62
2019-05-23T18:48:57.621Z,5.62
2019-05-23T18:49:57.612Z,5.62
2019-05-23T18:50:57.610Z,5.62
2019-05-23T18:51:57.593Z,5.62
2019-05-23T18:52:57.740Z,5.62
2019-05-23T18:53:57.948Z,5.62
2019-05-23T18:54:57.902Z,5.62
2019-05-23T18:55:57.637Z,0.00
2019-05-23T18:56:57.547Z,0.00
2019-05-23T18:57:57.580Z,0.00
2019-05-23T18:58:57.519Z,0.00
2019-05-23T18:59:57.506Z,0.00
2019-05-23T19:00:57.497Z,0.00
2019-05-23T19:01:57.497Z,0.00
2019-05-23T19:02:57.465Z,0.00
2019-05-23T19:03:57.458Z,0.00
2019-05-23T19:04:57.500Z,0.00
2019-05-23T19:05:57.464Z,0.00
2019-05-23T19:06:57.435Z,0.00
2019-05-23T19:07:57.411Z,0.00
2019-05-23T19:08:57.400Z,0.00
2019-05-23T19:09:57.390Z,0.00
2019-05-23T19:10:57.380Z,0.00
2019-05-23T19:11:57.382Z,0.00
2019-05-23T19:12:57.366Z,0.00
2019-05-23T19:13:57.354Z,0.00
2019-05-23T19:14:57.337Z,0.00
2019-05-23T19:15:57.334Z,0.00
2019-05-23T19:16:57.317Z,0.00
2019-05-23T19:17:57.325Z,0.00
2019-05-23T19:18:57.308Z,0.00
2019-05-23T19:19:57.295Z,0.00
2019-05-23T19:20:57.278Z,0.00
2019-05-23T19:21:57.266Z,0.00
2019-05-23T19:22:57.256Z,0.00
2019-05-23T19:23:57.248Z,0.00
2019-05-23T19:24:57.239Z,0.00
2019-05-23T19:25:57.236Z,0.00
2019-05-23T19:26:57.213Z,0.00
2019-05-23T19:27:57.203Z,0.00
2019-05-23T19:28:57.213Z,0.00
2019-05-23T19:29:57.181Z,0.00
2019-05-23T19:30:57.178Z,0.00
2019-05-23T19:31:57.160Z,0.00
2019-05-23T19:32:57.144Z,0.00
2019-05-23T19:33:57.142Z,0.00
2019-05-23T19:34:57.160Z,0.00
2019-05-23T19:35:57.117Z,0.00
2019-05-23T19:36:57.102Z,0.00
2019-05-23T19:37:57.093Z,0.00
2019-05-23T19:38:57.082Z,0.00
2019-05-23T19:39:57.078Z,0.00
2019-05-23T19:40:57.069Z,0.00
2019-05-23T19:41:57.052Z,0.00
2019-05-23T19:42:57.044Z,0.00
2019-05-23T19:43:57.034Z,0.00
2019-05-23T19:44:57.032Z,0.00
2019-05-23T19:45:57.016Z,0.00
2019-05-23T19:46:57.002Z,0.00
2019-05-23T19:47:56.994Z,0.00
2019-05-23T19:48:56.987Z,0.00
2019-05-23T19:49:56.970Z,0.00
2019-05-23T19:50:56.970Z,0.00
2019-05-23T19:51:56.956Z,0.00
2019-05-23T19:52:56.936Z,0.00
2019-05-23T19:53:56.925Z,0.00
2019-05-23T19:54:56.916Z,0.00
2019-05-23T19:55:56.934Z,0.00
2019-05-23T19:56:56.928Z,0.00
2019-05-23T19:57:56.888Z,0.00
2019-05-23T19:58:56.866Z,0.00
2019-05-23T19:59:56.864Z,0.00
2019-05-23T20:00:56.843Z,0.00
2019-05-23T20:01:56.848Z,0.00
2019-05-23T20:02:56.836Z,0.00
2019-05-23T20:03:56.811Z,0.00
2019-05-23T20:04:56.800Z,0.00
2019-05-23T20:05:56.802Z,0.00
2019-05-23T20:06:56.798Z,0.00
2019-05-23T20:07:56.768Z,0.00
2019-05-23T20:08:56.756Z,0.00
2019-05-23T20:09:57.473Z,0.00
2019-05-23T20:10:56.737Z,0.00
2019-05-23T20:11:56.740Z,0.00
2019-05-23T20:12:56.736Z,0.00
2019-05-23T20:13:56.710Z,0.00
2019-05-23T20:14:56.693Z,0.00
2019-05-23T20:15:56.684Z,0.00
2019-05-23T20:16:56.672Z,0.00
2019-05-23T20:17:56.672Z,0.00
2019-05-23T20:18:56.657Z,0.00
2019-05-23T20:19:56.640Z,0.00
2019-05-23T20:20:56.639Z,0.00
2019-05-23T20:21:56.622Z,0.00
2019-05-23T20:22:56.625Z,0.00
2019-05-23T20:23:56.602Z,0.00
2019-05-23T20:24:56.587Z,0.00
2019-05-23T20:25:56.574Z,0.00
2019-05-23T20:26:56.567Z,0.00
2019-05-23T20:27:56.576Z,0.00
2019-05-23T20:28:56.547Z,0.00
2019-05-23T20:29:56.534Z,0.00
2019-05-23T20:30:56.538Z,0.00
2019-05-23T20:31:56.512Z,0.00
2019-05-23T20:32:56.515Z,0.00
2019-05-23T20:33:56.491Z,0.00
2019-05-23T20:34:56.486Z,0.00
2019-05-23T20:35:56.469Z,0.00
2019-05-23T20:36:56.453Z,0.00
2019-05-23T20:37:56.457Z,0.00
2019-05-23T20:38:56.437Z,0.00
2019-05-23T20:39:56.461Z,0.00
2019-05-23T20:40:56.409Z,0.00
2019-05-23T20:42:10.309Z,0.00
2019-05-23T20:42:57.391Z,0.00
2019-05-23T20:43:56.382Z,0.00
2019-05-23T20:44:56.368Z,0.00
2019-05-23T20:45:56.394Z,0.00
2019-05-23T20:46:56.346Z,0.00
2019-05-23T20:47:56.342Z,0.00
2019-05-23T20:48:56.327Z,0.00
2019-05-23T20:49:56.317Z,0.00
2019-05-23T20:50:56.305Z,0.00
2019-05-23T20:51:56.297Z,0.00
2019-05-23T20:52:56.284Z,0.00
2019-05-23T20:53:56.274Z,0.00
2019-05-23T20:54:56.258Z,0.00
2019-05-23T20:55:56.253Z,0.00
2019-05-23T20:56:56.256Z,0.00
2019-05-23T20:57:56.238Z,0.00
2019-05-23T20:58:56.224Z,0.00
2019-05-23T20:59:56.205Z,0.00
2019-05-23T21:00:56.194Z,0.00
2019-05-23T21:01:56.215Z,0.00
2019-05-23T21:02:56.174Z,0.00
2019-05-23T21:03:56.190Z,0.00
2019-05-23T21:04:56.157Z,0.00
2019-05-23T21:05:56.145Z,0.00
2019-05-23T21:06:56.128Z,0.00
2019-05-23T21:07:56.130Z,0.00
2019-05-23T21:08:56.111Z,0.00
2019-05-23T21:09:56.109Z,0.00
2019-05-23T21:10:56.084Z,0.00
2019-05-23T21:11:56.074Z,0.00
2019-05-23T21:12:56.068Z,0.00
2019-05-23T21:13:56.065Z,0.00
2019-05-23T21:14:56.042Z,0.00
2019-05-23T21:15:56.037Z,0.00
2019-05-23T21:16:56.027Z,0.00
2019-05-23T21:17:56.018Z,0.00
2019-05-23T21:18:56.030Z,0.00
2019-05-23T21:19:56.225Z,0.00
2019-05-23T21:20:56.097Z,0.00
2019-05-23T21:21:56.009Z,0.00
2019-05-23T21:22:56.067Z,0.00
2019-05-23T21:23:57.073Z,0.00
2019-05-23T21:24:55.951Z,0.00
2019-05-23T21:25:55.936Z,0.00
2019-05-23T21:26:55.919Z,0.00
2019-05-23T21:27:55.914Z,0.00
2019-05-23T21:28:55.899Z,0.00
2019-05-23T21:29:55.897Z,0.00
2019-05-23T21:30:55.882Z,0.00
2019-05-23T21:31:55.860Z,0.00
2019-05-23T21:32:55.856Z,0.00
2019-05-23T21:33:55.849Z,0.00
2019-05-23T21:34:55.835Z,0.00
2019-05-23T21:35:55.823Z,0.00
2019-05-23T21:36:55.814Z,0.00
2019-05-23T21:37:55.803Z,0.00
2019-05-23T21:38:55.799Z,0.00
2019-05-23T21:39:55.775Z,0.00
2019-05-23T21:40:55.770Z,0.00
2019-05-23T21:41:55.758Z,0.00
2019-05-23T21:42:55.747Z,0.00
2019-05-23T21:43:55.740Z,0.00
2019-05-23T21:44:55.734Z,0.00
2019-05-23T21:45:55.715Z,0.00
2019-05-23T21:46:55.708Z,0.00
2019-05-23T21:47:55.688Z,0.00
2019-05-23T21:48:55.683Z,0.00
2019-05-23T21:49:55.682Z,0.00
2019-05-23T21:50:55.671Z,0.00
2019-05-23T21:51:55.655Z,0.00
2019-05-23T21:52:55.644Z,0.00
2019-05-23T21:53:55.625Z,0.00
2019-05-23T21:54:55.620Z,0.00
2019-05-23T21:55:55.608Z,0.00
2019-05-23T21:56:55.608Z,0.00
2019-05-23T21:57:55.587Z,0.00
2019-05-23T21:58:55.574Z,0.00
2019-05-23T21:59:55.563Z,0.00
2019-05-23T22:00:55.555Z,0.00
2019-05-23T22:01:55.554Z,0.00
2019-05-23T22:02:55.536Z,0.00
2019-05-23T22:03:55.543Z,0.00
2019-05-23T22:04:55.515Z,0.00
2019-05-23T22:05:55.498Z,0.00
2019-05-23T22:06:55.926Z,0.00
2019-05-23T22:07:55.478Z,0.00
2019-05-23T22:08:55.479Z,0.00
2019-05-23T22:09:55.457Z,0.00
2019-05-23T22:10:55.470Z,0.00
2019-05-23T22:11:55.444Z,0.00
2019-05-23T22:13:03.792Z,0.00
2019-05-23T22:13:56.407Z,0.00
2019-05-23T22:14:55.413Z,0.00
2019-05-23T22:15:55.391Z,0.00
2019-05-23T22:16:55.393Z,0.00
2019-05-23T22:17:55.366Z,0.00
2019-05-23T22:18:55.376Z,0.00
2019-05-23T22:19:55.355Z,0.00
2019-05-23T22:20:55.337Z,0.00
2019-05-23T22:21:55.335Z,0.00
2019-05-23T22:22:55.313Z,0.00
2019-05-23T22:23:55.363Z,0.00
2019-05-23T22:24:55.301Z,0.00
2019-05-23T22:25:55.281Z,0.00
2019-05-23T22:26:55.283Z,0.00
2019-05-23T22:27:55.258Z,0.00
2019-05-23T22:28:55.267Z,0.00
2019-05-23T22:29:55.233Z,0.00
2019-05-23T22:30:55.229Z,0.00
2019-05-23T22:31:56.545Z,0.00
2019-05-23T22:32:55.202Z,0.00
2019-05-23T22:33:55.192Z,0.00
2019-05-23T22:34:55.224Z,0.00